Brenham, TX (77834)

2:23 PM CDT on July 01, 2015 (GMT -0500)
Hickory Bend Subdivision | | Change Station
CLOSE
Current Station
Personal Weather Station
Location: Brenham, TX
Elevation: 410 ft
Nearby Weather Stations

Elev 410 ft 30.18 °N, 96.46 °W | Updated 3 minutes ago

Partly Cloudy
Partly Cloudy
84.2 °F
Feels Like 96 °F
N
1.7
Wind Variable Wind from NNW

Today
High -- | Low -- °F
--% Chance of Precip.
Yesterday
High -- | Low -- °F
Precip. -- in
6:27 AM 8:31 PM
Full, 100% visible
Pressure 30.04 in
Visibility 10.0 miles
Clouds Clear
Heat Index 96 °F
Dew Point 79 °F
Humidity 84%
Rainfall 0.20 in
Snow Depth Not available.
UV 12 out of 12
Pollen 3.70 out of 12
Air Quality Not available.
Flu Activity Not available.
METAR K11R 011915Z AUTO 17007KT 10SM CLR 30/24 A3004 RMK AO2 LTG DSNT E THRU S T02970236

More Conditions Fewer Conditions

Pressure 30.04 in
Visibility 10.0 miles
Clouds Clear
Heat Index 96 °F
Dew Point 79 °F
Humidity 84%
Rainfall 0.20 in
Snow Depth Not available.
UV 12 out of 12
Pollen 3.70 out of 12
Air Quality Not available.
Flu Activity Not available.
METAR K11R 011915Z AUTO 17007KT 10SM CLR 30/24 A3004 RMK AO2 LTG DSNT E THRU S T02970236

More Conditions Fewer Conditions

10-Day Weather Forecast

×

Almanac

Astronomy

Jul. 01, 2015 Rise Set
Actual Time
Civil Twilight
Nautical Twilight
Astronomical Twilight
Moon
Length of Visible Light
Length of Day
Tomorrow will be .
, % of the Moon is Illuminated

Today's Extremes

State Highs State Lows

Community

WunderPhotos

Upload Photos

1,834,245 photos uploaded!

WunderBlogs® & News

Nearby

Air Quality

  Air Quality AQ Index Pollutant
Not available.

Snow Depth

Station Depth Elevation

Earthquake Activity

City Distance Mag. Time & Date
Minimum magnitude displayed is 2.5.

Coastal Water Temperatures

Place Temperature

Stations

Nearby Weather Stations

Station Location Temp. Windchill Dew Point Humidity Wind Precip. Elev Updated Type